sensor_id;sensor_type;location;lat;lon;timestamp;P1;durP1;ratioP1;P2;durP2;ratioP2
72301;SDS011;60235;52.234;5.186;2023-02-03T00:00:02;7.22;;;1.88;;
72301;SDS011;60235;52.234;5.186;2023-02-03T00:02:28;12.82;;;2.33;;
72301;SDS011;60235;52.234;5.186;2023-02-03T00:04:54;14.25;;;2.47;;
72301;SDS011;60235;52.234;5.186;2023-02-03T00:07:20;7.88;;;2.40;;
72301;SDS011;60235;52.234;5.186;2023-02-03T00:09:46;10.95;;;2.42;;
72301;SDS011;60235;52.234;5.186;2023-02-03T00:12:12;9.98;;;2.17;;
72301;SDS011;60235;52.234;5.186;2023-02-03T00:14:38;8.57;;;1.85;;
72301;SDS011;60235;52.234;5.186;2023-02-03T00:17:04;13.60;;;2.13;;
72301;SDS011;60235;52.234;5.186;2023-02-03T00:19:30;11.60;;;1.92;;
72301;SDS011;60235;52.234;5.186;2023-02-03T00:21:57;13.32;;;2.47;;
72301;SDS011;60235;52.234;5.186;2023-02-03T00:24:22;9.65;;;1.77;;
72301;SDS011;60235;52.234;5.186;2023-02-03T00:26:48;13.15;;;2.10;;
72301;SDS011;60235;52.234;5.186;2023-02-03T00:29:14;11.80;;;2.15;;
72301;SDS011;60235;52.234;5.186;2023-02-03T00:31:42;10.52;;;1.70;;
72301;SDS011;60235;52.234;5.186;2023-02-03T00:34:08;12.77;;;2.30;;
72301;SDS011;60235;52.234;5.186;2023-02-03T00:36:34;11.73;;;2.00;;
72301;SDS011;60235;52.234;5.186;2023-02-03T00:39:01;9.50;;;2.08;;
72301;SDS011;60235;52.234;5.186;2023-02-03T00:41:27;11.88;;;2.17;;
72301;SDS011;60235;52.234;5.186;2023-02-03T00:43:54;12.15;;;2.20;;
72301;SDS011;60235;52.234;5.186;2023-02-03T00:46:20;10.73;;;2.40;;
72301;SDS011;60235;52.234;5.186;2023-02-03T00:48:46;7.63;;;1.63;;
72301;SDS011;60235;52.234;5.186;2023-02-03T00:51:12;14.18;;;2.20;;
72301;SDS011;60235;52.234;5.186;2023-02-03T00:53:38;15.75;;;2.15;;
72301;SDS011;60235;52.234;5.186;2023-02-03T00:56:05;11.80;;;2.10;;
72301;SDS011;60235;52.234;5.186;2023-02-03T00:58:36;9.50;;;1.83;;
72301;SDS011;60235;52.234;5.186;2023-02-03T01:01:02;11.43;;;2.15;;
72301;SDS011;60235;52.234;5.186;2023-02-03T01:03:28;10.40;;;2.67;;
72301;SDS011;60235;52.234;5.186;2023-02-03T01:05:54;8.00;;;1.95;;
72301;SDS011;60235;52.234;5.186;2023-02-03T01:08:20;13.27;;;2.13;;
72301;SDS011;60235;52.234;5.186;2023-02-03T01:10:47;7.35;;;1.80;;
72301;SDS011;60235;52.234;5.186;2023-02-03T01:13:13;10.40;;;2.28;;
72301;SDS011;60235;52.234;5.186;2023-02-03T01:15:46;10.65;;;2.42;;
72301;SDS011;60235;52.234;5.186;2023-02-03T01:18:12;7.03;;;1.80;;
72301;SDS011;60235;52.234;5.186;2023-02-03T01:20:38;9.15;;;2.03;;
72301;SDS011;60235;52.234;5.186;2023-02-03T01:23:04;10.43;;;2.15;;
72301;SDS011;60235;52.234;5.186;2023-02-03T01:25:30;9.57;;;2.10;;
72301;SDS011;60235;52.234;5.186;2023-02-03T01:27:56;13.45;;;2.47;;
72301;SDS011;60235;52.234;5.186;2023-02-03T01:30:23;11.02;;;1.95;;
72301;SDS011;60235;52.234;5.186;2023-02-03T01:32:48;8.40;;;2.10;;
72301;SDS011;60235;52.234;5.186;2023-02-03T01:35:14;11.00;;;2.03;;
72301;SDS011;60235;52.234;5.186;2023-02-03T01:37:40;9.80;;;1.67;;
72301;SDS011;60235;52.234;5.186;2023-02-03T01:40:07;8.43;;;1.50;;
72301;SDS011;60235;52.234;5.186;2023-02-03T01:42:33;8.88;;;1.52;;
72301;SDS011;60235;52.234;5.186;2023-02-03T01:44:59;7.32;;;1.75;;
72301;SDS011;60235;52.234;5.186;2023-02-03T01:47:45;6.28;;;1.50;;
72301;SDS011;60235;52.234;5.186;2023-02-03T01:52:42;7.57;;;1.20;;
72301;SDS011;60235;52.234;5.186;2023-02-03T01:55:11;13.00;;;1.80;;
72301;SDS011;60235;52.234;5.186;2023-02-03T01:57:40;10.63;;;1.40;;
72301;SDS011;60235;52.234;5.186;2023-02-03T02:00:07;11.00;;;1.67;;
72301;SDS011;60235;52.234;5.186;2023-02-03T02:02:34;10.38;;;1.80;;
72301;SDS011;60235;52.234;5.186;2023-02-03T02:05:05;9.27;;;1.60;;
72301;SDS011;60235;52.234;5.186;2023-02-03T02:07:31;8.70;;;1.70;;
72301;SDS011;60235;52.234;5.186;2023-02-03T02:09:58;8.68;;;1.35;;
72301;SDS011;60235;52.234;5.186;2023-02-03T02:12:24;11.77;;;1.55;;
72301;SDS011;60235;52.234;5.186;2023-02-03T02:14:50;8.63;;;1.40;;
72301;SDS011;60235;52.234;5.186;2023-02-03T02:20:22;8.75;;;1.52;;
72301;SDS011;60235;52.234;5.186;2023-02-03T02:35:23;5.75;;;1.30;;
72301;SDS011;60235;52.234;5.186;2023-02-03T02:38:00;4.47;;;0.98;;
72301;SDS011;60235;52.234;5.186;2023-02-03T02:40:37;7.38;;;1.95;;
72301;SDS011;60235;52.234;5.186;2023-02-03T02:45:52;6.70;;;1.33;;
72301;SDS011;60235;52.234;5.186;2023-02-03T02:48:25;6.13;;;1.20;;
72301;SDS011;60235;52.234;5.186;2023-02-03T02:50:54;7.95;;;1.20;;
72301;SDS011;60235;52.234;5.186;2023-02-03T02:53:21;9.45;;;1.38;;
72301;SDS011;60235;52.234;5.186;2023-02-03T02:55:48;7.75;;;1.17;;
72301;SDS011;60235;52.234;5.186;2023-02-03T02:58:16;9.27;;;1.40;;
72301;SDS011;60235;52.234;5.186;2023-02-03T03:00:44;6.38;;;1.02;;
72301;SDS011;60235;52.234;5.186;2023-02-03T03:03:14;4.38;;;1.05;;
72301;SDS011;60235;52.234;5.186;2023-02-03T03:05:42;8.32;;;1.40;;
72301;SDS011;60235;52.234;5.186;2023-02-03T03:08:09;5.85;;;1.60;;
72301;SDS011;60235;52.234;5.186;2023-02-03T03:10:37;9.73;;;1.65;;
72301;SDS011;60235;52.234;5.186;2023-02-03T03:13:06;7.82;;;1.30;;
72301;SDS011;60235;52.234;5.186;2023-02-03T03:15:32;8.55;;;1.65;;
72301;SDS011;60235;52.234;5.186;2023-02-03T03:20:27;8.38;;;1.52;;
72301;SDS011;60235;52.234;5.186;2023-02-03T03:22:56;7.00;;;1.48;;
72301;SDS011;60235;52.234;5.186;2023-02-03T03:25:23;8.75;;;1.33;;
72301;SDS011;60235;52.234;5.186;2023-02-03T03:27:52;8.23;;;1.55;;
72301;SDS011;60235;52.234;5.186;2023-02-03T03:30:20;10.95;;;1.88;;
72301;SDS011;60235;52.234;5.186;2023-02-03T03:32:47;8.00;;;1.20;;
72301;SDS011;60235;52.234;5.186;2023-02-03T03:35:13;7.15;;;1.27;;
72301;SDS011;60235;52.234;5.186;2023-02-03T03:37:44;11.38;;;1.77;;
72301;SDS011;60235;52.234;5.186;2023-02-03T03:40:11;12.18;;;1.92;;
72301;SDS011;60235;52.234;5.186;2023-02-03T03:45:08;8.65;;;1.45;;
72301;SDS011;60235;52.234;5.186;2023-02-03T03:47:40;9.82;;;1.80;;
72301;SDS011;60235;52.234;5.186;2023-02-03T03:50:09;11.15;;;1.48;;
72301;SDS011;60235;52.234;5.186;2023-02-03T03:52:36;7.53;;;1.30;;
72301;SDS011;60235;52.234;5.186;2023-02-03T03:55:05;8.60;;;1.70;;
72301;SDS011;60235;52.234;5.186;2023-02-03T03:57:35;11.52;;;1.60;;
72301;SDS011;60235;52.234;5.186;2023-02-03T04:02:28;8.52;;;1.48;;
72301;SDS011;60235;52.234;5.186;2023-02-03T04:04:54;11.60;;;1.88;;
72301;SDS011;60235;52.234;5.186;2023-02-03T04:07:23;9.57;;;1.83;;
72301;SDS011;60235;52.234;5.186;2023-02-03T04:09:49;11.70;;;2.00;;
72301;SDS011;60235;52.234;5.186;2023-02-03T04:12:21;5.00;;;1.15;;
72301;SDS011;60235;52.234;5.186;2023-02-03T04:14:47;7.47;;;1.58;;
72301;SDS011;60235;52.234;5.186;2023-02-03T04:17:13;5.65;;;1.35;;
72301;SDS011;60235;52.234;5.186;2023-02-03T04:19:39;9.07;;;1.40;;
72301;SDS011;60235;52.234;5.186;2023-02-03T04:22:05;6.47;;;1.08;;
72301;SDS011;60235;52.234;5.186;2023-02-03T04:24:31;6.38;;;0.82;;
72301;SDS011;60235;52.234;5.186;2023-02-03T04:26:57;6.80;;;1.27;;
72301;SDS011;60235;52.234;5.186;2023-02-03T04:29:23;7.60;;;1.25;;
72301;SDS011;60235;52.234;5.186;2023-02-03T04:31:49;6.72;;;1.23;;
72301;SDS011;60235;52.234;5.186;2023-02-03T04:34:15;7.78;;;1.25;;
72301;SDS011;60235;52.234;5.186;2023-02-03T04:36:41;9.68;;;1.23;;
72301;SDS011;60235;52.234;5.186;2023-02-03T04:39:07;10.25;;;1.23;;
72301;SDS011;60235;52.234;5.186;2023-02-03T04:41:33;10.07;;;1.80;;
72301;SDS011;60235;52.234;5.186;2023-02-03T04:43:59;9.48;;;1.60;;
72301;SDS011;60235;52.234;5.186;2023-02-03T04:46:25;12.32;;;1.25;;
72301;SDS011;60235;52.234;5.186;2023-02-03T04:48:51;11.23;;;1.63;;
72301;SDS011;60235;52.234;5.186;2023-02-03T04:51:17;11.90;;;1.75;;
72301;SDS011;60235;52.234;5.186;2023-02-03T04:53:43;10.75;;;1.60;;
72301;SDS011;60235;52.234;5.186;2023-02-03T04:56:09;10.55;;;1.65;;
72301;SDS011;60235;52.234;5.186;2023-02-03T04:58:35;7.20;;;1.55;;
72301;SDS011;60235;52.234;5.186;2023-02-03T05:01:06;13.35;;;1.33;;
72301;SDS011;60235;52.234;5.186;2023-02-03T05:03:32;11.18;;;1.80;;
72301;SDS011;60235;52.234;5.186;2023-02-03T05:05:59;6.10;;;1.27;;
72301;SDS011;60235;52.234;5.186;2023-02-03T05:08:25;11.65;;;1.60;;
72301;SDS011;60235;52.234;5.186;2023-02-03T05:10:51;9.85;;;1.70;;
72301;SDS011;60235;52.234;5.186;2023-02-03T05:13:17;8.98;;;1.33;;
72301;SDS011;60235;52.234;5.186;2023-02-03T05:15:43;11.20;;;1.67;;
72301;SDS011;60235;52.234;5.186;2023-02-03T05:18:09;7.35;;;1.35;;
72301;SDS011;60235;52.234;5.186;2023-02-03T05:20:35;11.10;;;1.63;;
72301;SDS011;60235;52.234;5.186;2023-02-03T05:23:01;10.18;;;1.73;;
72301;SDS011;60235;52.234;5.186;2023-02-03T05:25:27;12.52;;;1.80;;
72301;SDS011;60235;52.234;5.186;2023-02-03T05:27:53;11.55;;;2.08;;
72301;SDS011;60235;52.234;5.186;2023-02-03T05:30:19;15.00;;;1.75;;
72301;SDS011;60235;52.234;5.186;2023-02-03T05:32:45;7.80;;;1.50;;
72301;SDS011;60235;52.234;5.186;2023-02-03T05:35:11;9.15;;;1.80;;
72301;SDS011;60235;52.234;5.186;2023-02-03T05:37:37;11.38;;;1.60;;
72301;SDS011;60235;52.234;5.186;2023-02-03T05:40:03;9.75;;;1.38;;
72301;SDS011;60235;52.234;5.186;2023-02-03T05:42:48;6.60;;;1.35;;
72301;SDS011;60235;52.234;5.186;2023-02-03T05:45:14;10.43;;;1.42;;
72301;SDS011;60235;52.234;5.186;2023-02-03T05:47:41;6.65;;;1.45;;
72301;SDS011;60235;52.234;5.186;2023-02-03T05:50:07;9.10;;;1.33;;
72301;SDS011;60235;52.234;5.186;2023-02-03T05:52:33;12.82;;;1.60;;
72301;SDS011;60235;52.234;5.186;2023-02-03T05:54:59;8.10;;;1.40;;
72301;SDS011;60235;52.234;5.186;2023-02-03T05:57:25;8.63;;;1.58;;
72301;SDS011;60235;52.234;5.186;2023-02-03T05:59:51;5.75;;;1.10;;
72301;SDS011;60235;52.234;5.186;2023-02-03T06:02:17;13.55;;;1.70;;
72301;SDS011;60235;52.234;5.186;2023-02-03T06:04:43;9.48;;;1.30;;
72301;SDS011;60235;52.234;5.186;2023-02-03T06:07:09;10.07;;;1.55;;
72301;SDS011;60235;52.234;5.186;2023-02-03T06:09:35;12.95;;;1.85;;
72301;SDS011;60235;52.234;5.186;2023-02-03T06:12:01;12.63;;;1.88;;
72301;SDS011;60235;52.234;5.186;2023-02-03T06:14:27;11.07;;;1.83;;
72301;SDS011;60235;52.234;5.186;2023-02-03T06:16:53;15.10;;;2.05;;
72301;SDS011;60235;52.234;5.186;2023-02-03T06:19:19;16.02;;;2.20;;
72301;SDS011;60235;52.234;5.186;2023-02-03T06:21:45;9.13;;;1.30;;
72301;SDS011;60235;52.234;5.186;2023-02-03T06:24:11;10.65;;;1.35;;
72301;SDS011;60235;52.234;5.186;2023-02-03T06:26:37;8.80;;;1.42;;
72301;SDS011;60235;52.234;5.186;2023-02-03T06:29:03;10.43;;;1.70;;
72301;SDS011;60235;52.234;5.186;2023-02-03T06:31:29;7.75;;;1.50;;
72301;SDS011;60235;52.234;5.186;2023-02-03T06:33:55;13.60;;;2.28;;
72301;SDS011;60235;52.234;5.186;2023-02-03T06:36:21;9.60;;;1.70;;
72301;SDS011;60235;52.234;5.186;2023-02-03T06:38:47;13.73;;;1.98;;
72301;SDS011;60235;52.234;5.186;2023-02-03T06:41:13;10.65;;;1.75;;
72301;SDS011;60235;52.234;5.186;2023-02-03T06:43:39;9.80;;;1.58;;
72301;SDS011;60235;52.234;5.186;2023-02-03T06:46:05;12.65;;;1.92;;
72301;SDS011;60235;52.234;5.186;2023-02-03T06:48:31;10.13;;;1.58;;
72301;SDS011;60235;52.234;5.186;2023-02-03T06:50:57;13.23;;;1.80;;
72301;SDS011;60235;52.234;5.186;2023-02-03T06:53:23;11.05;;;1.92;;
72301;SDS011;60235;52.234;5.186;2023-02-03T06:55:49;14.43;;;2.28;;
72301;SDS011;60235;52.234;5.186;2023-02-03T06:58:15;10.07;;;1.50;;
72301;SDS011;60235;52.234;5.186;2023-02-03T07:00:42;14.48;;;2.05;;
72301;SDS011;60235;52.234;5.186;2023-02-03T07:03:08;13.38;;;1.73;;
72301;SDS011;60235;52.234;5.186;2023-02-03T07:05:34;11.30;;;2.10;;
72301;SDS011;60235;52.234;5.186;2023-02-03T07:08:00;10.90;;;1.58;;
72301;SDS011;60235;52.234;5.186;2023-02-03T07:10:26;12.27;;;1.85;;
72301;SDS011;60235;52.234;5.186;2023-02-03T07:12:52;10.75;;;2.00;;
72301;SDS011;60235;52.234;5.186;2023-02-03T07:15:18;17.15;;;2.55;;
72301;SDS011;60235;52.234;5.186;2023-02-03T07:17:46;14.40;;;1.80;;
72301;SDS011;60235;52.234;5.186;2023-02-03T07:20:18;14.25;;;2.35;;
72301;SDS011;60235;52.234;5.186;2023-02-03T07:22:44;14.93;;;2.13;;
72301;SDS011;60235;52.234;5.186;2023-02-03T07:25:11;15.25;;;2.10;;
72301;SDS011;60235;52.234;5.186;2023-02-03T07:27:37;7.60;;;1.40;;
72301;SDS011;60235;52.234;5.186;2023-02-03T07:30:04;11.10;;;1.60;;
72301;SDS011;60235;52.234;5.186;2023-02-03T07:32:30;11.15;;;1.83;;
72301;SDS011;60235;52.234;5.186;2023-02-03T07:34:56;16.05;;;1.77;;
72301;SDS011;60235;52.234;5.186;2023-02-03T07:37:22;12.68;;;2.05;;
72301;SDS011;60235;52.234;5.186;2023-02-03T07:39:48;13.82;;;2.10;;
72301;SDS011;60235;52.234;5.186;2023-02-03T07:42:14;24.10;;;2.38;;
72301;SDS011;60235;52.234;5.186;2023-02-03T07:44:40;11.05;;;1.77;;
72301;SDS011;60235;52.234;5.186;2023-02-03T07:47:05;14.05;;;1.85;;
72301;SDS011;60235;52.234;5.186;2023-02-03T07:49:31;10.85;;;1.63;;
72301;SDS011;60235;52.234;5.186;2023-02-03T07:51:57;12.68;;;1.70;;
72301;SDS011;60235;52.234;5.186;2023-02-03T07:54:23;9.43;;;1.80;;
72301;SDS011;60235;52.234;5.186;2023-02-03T07:56:49;11.13;;;1.73;;
72301;SDS011;60235;52.234;5.186;2023-02-03T07:59:16;11.48;;;2.05;;
72301;SDS011;60235;52.234;5.186;2023-02-03T08:01:42;13.80;;;2.65;;
72301;SDS011;60235;52.234;5.186;2023-02-03T08:04:08;12.30;;;2.20;;
72301;SDS011;60235;52.234;5.186;2023-02-03T08:06:36;11.95;;;2.00;;
72301;SDS011;60235;52.234;5.186;2023-02-03T08:09:02;11.05;;;1.50;;
72301;SDS011;60235;52.234;5.186;2023-02-03T08:11:28;9.73;;;1.90;;
72301;SDS011;60235;52.234;5.186;2023-02-03T08:13:54;12.48;;;1.98;;
72301;SDS011;60235;52.234;5.186;2023-02-03T08:16:20;10.70;;;1.67;;
72301;SDS011;60235;52.234;5.186;2023-02-03T08:18:46;16.90;;;2.50;;
72301;SDS011;60235;52.234;5.186;2023-02-03T08:21:12;16.70;;;2.45;;
72301;SDS011;60235;52.234;5.186;2023-02-03T08:23:38;12.13;;;2.00;;
72301;SDS011;60235;52.234;5.186;2023-02-03T08:26:04;15.52;;;2.40;;
72301;SDS011;60235;52.234;5.186;2023-02-03T08:28:30;8.23;;;2.20;;
72301;SDS011;60235;52.234;5.186;2023-02-03T08:30:56;13.20;;;2.03;;
72301;SDS011;60235;52.234;5.186;2023-02-03T08:33:22;8.00;;;1.60;;
72301;SDS011;60235;52.234;5.186;2023-02-03T08:35:48;12.68;;;1.88;;
72301;SDS011;60235;52.234;5.186;2023-02-03T08:38:15;10.52;;;1.70;;
72301;SDS011;60235;52.234;5.186;2023-02-03T08:40:41;16.35;;;2.55;;
72301;SDS011;60235;52.234;5.186;2023-02-03T08:43:07;13.73;;;1.92;;
72301;SDS011;60235;52.234;5.186;2023-02-03T08:45:33;10.43;;;1.67;;
72301;SDS011;60235;52.234;5.186;2023-02-03T08:47:59;10.35;;;1.67;;
72301;SDS011;60235;52.234;5.186;2023-02-03T08:50:25;10.55;;;1.73;;
72301;SDS011;60235;52.234;5.186;2023-02-03T08:52:51;11.98;;;1.83;;
72301;SDS011;60235;52.234;5.186;2023-02-03T08:55:17;15.25;;;2.00;;
72301;SDS011;60235;52.234;5.186;2023-02-03T08:57:43;10.43;;;2.00;;
72301;SDS011;60235;52.234;5.186;2023-02-03T09:00:10;14.52;;;1.67;;
72301;SDS011;60235;52.234;5.186;2023-02-03T09:02:36;8.63;;;1.65;;
72301;SDS011;60235;52.234;5.186;2023-02-03T09:05:02;15.27;;;2.28;;
72301;SDS011;60235;52.234;5.186;2023-02-03T09:07:28;10.95;;;1.90;;
72301;SDS011;60235;52.234;5.186;2023-02-03T09:09:54;12.55;;;2.10;;
72301;SDS011;60235;52.234;5.186;2023-02-03T09:12:20;10.45;;;1.77;;
72301;SDS011;60235;52.234;5.186;2023-02-03T09:14:46;12.02;;;1.90;;
72301;SDS011;60235;52.234;5.186;2023-02-03T09:17:12;13.60;;;1.90;;
72301;SDS011;60235;52.234;5.186;2023-02-03T09:19:38;9.57;;;1.70;;
72301;SDS011;60235;52.234;5.186;2023-02-03T09:22:04;6.63;;;1.73;;
72301;SDS011;60235;52.234;5.186;2023-02-03T09:24:30;11.40;;;1.67;;
72301;SDS011;60235;52.234;5.186;2023-02-03T09:26:56;11.18;;;1.80;;
72301;SDS011;60235;52.234;5.186;2023-02-03T09:29:24;9.05;;;1.80;;
72301;SDS011;60235;52.234;5.186;2023-02-03T09:31:50;10.77;;;1.90;;
72301;SDS011;60235;52.234;5.186;2023-02-03T09:34:18;13.70;;;2.03;;
72301;SDS011;60235;52.234;5.186;2023-02-03T09:36:44;8.75;;;1.63;;
72301;SDS011;60235;52.234;5.186;2023-02-03T09:39:10;9.35;;;1.70;;
72301;SDS011;60235;52.234;5.186;2023-02-03T09:44:27;13.45;;;2.22;;
72301;SDS011;60235;52.234;5.186;2023-02-03T09:47:02;9.50;;;2.08;;
72301;SDS011;60235;52.234;5.186;2023-02-03T09:57:20;9.85;;;1.88;;
72301;SDS011;60235;52.234;5.186;2023-02-03T09:59:47;9.65;;;1.48;;
72301;SDS011;60235;52.234;5.186;2023-02-03T10:07:25;12.65;;;1.85;;
72301;SDS011;60235;52.234;5.186;2023-02-03T10:09:59;10.82;;;2.03;;
72301;SDS011;60235;52.234;5.186;2023-02-03T10:17:44;11.90;;;2.30;;
72301;SDS011;60235;52.234;5.186;2023-02-03T10:20:15;10.27;;;2.13;;
72301;SDS011;60235;52.234;5.186;2023-02-03T10:23:05;9.98;;;2.13;;
72301;SDS011;60235;52.234;5.186;2023-02-03T10:25:33;12.32;;;1.83;;
72301;SDS011;60235;52.234;5.186;2023-02-03T10:28:03;12.80;;;2.13;;
72301;SDS011;60235;52.234;5.186;2023-02-03T10:30:36;11.18;;;1.65;;
72301;SDS011;60235;52.234;5.186;2023-02-03T10:33:12;14.57;;;2.28;;
72301;SDS011;60235;52.234;5.186;2023-02-03T10:35:53;8.13;;;1.55;;
72301;SDS011;60235;52.234;5.186;2023-02-03T10:38:36;12.75;;;1.80;;
72301;SDS011;60235;52.234;5.186;2023-02-03T10:41:05;13.27;;;1.98;;
72301;SDS011;60235;52.234;5.186;2023-02-03T10:43:31;13.95;;;2.08;;
72301;SDS011;60235;52.234;5.186;2023-02-03T10:46:16;9.63;;;2.00;;
72301;SDS011;60235;52.234;5.186;2023-02-03T10:48:42;7.65;;;1.90;;
72301;SDS011;60235;52.234;5.186;2023-02-03T10:51:33;10.60;;;2.30;;
72301;SDS011;60235;52.234;5.186;2023-02-03T10:53:56;13.00;;;1.90;;
72301;SDS011;60235;52.234;5.186;2023-02-03T10:58:54;8.05;;;1.65;;
72301;SDS011;60235;52.234;5.186;2023-02-03T11:01:23;6.55;;;1.52;;
72301;SDS011;60235;52.234;5.186;2023-02-03T11:04:00;15.70;;;2.33;;
72301;SDS011;60235;52.234;5.186;2023-02-03T11:06:28;8.48;;;1.50;;
72301;SDS011;60235;52.234;5.186;2023-02-03T11:08:54;13.05;;;2.63;;
72301;SDS011;60235;52.234;5.186;2023-02-03T11:11:24;8.55;;;2.13;;
72301;SDS011;60235;52.234;5.186;2023-02-03T11:14:09;12.57;;;2.58;;
72301;SDS011;60235;52.234;5.186;2023-02-03T11:16:36;8.95;;;2.05;;
72301;SDS011;60235;52.234;5.186;2023-02-03T11:19:20;10.68;;;1.90;;
72301;SDS011;60235;52.234;5.186;2023-02-03T11:21:50;8.15;;;1.50;;
72301;SDS011;60235;52.234;5.186;2023-02-03T11:24:31;14.65;;;2.00;;
72301;SDS011;60235;52.234;5.186;2023-02-03T11:27:10;10.50;;;2.08;;
72301;SDS011;60235;52.234;5.186;2023-02-03T11:29:48;10.63;;;1.80;;
72301;SDS011;60235;52.234;5.186;2023-02-03T11:34:45;11.57;;;2.17;;
72301;SDS011;60235;52.234;5.186;2023-02-03T11:42:32;8.25;;;2.10;;
72301;SDS011;60235;52.234;5.186;2023-02-03T11:47:37;14.93;;;2.13;;
72301;SDS011;60235;52.234;5.186;2023-02-03T11:50:13;8.52;;;2.30;;
72301;SDS011;60235;52.234;5.186;2023-02-03T11:52:49;18.30;;;4.93;;
72301;SDS011;60235;52.234;5.186;2023-02-03T11:55:37;15.65;;;4.60;;
72301;SDS011;60235;52.234;5.186;2023-02-03T11:58:19;14.63;;;3.45;;
72301;SDS011;60235;52.234;5.186;2023-02-03T12:05:57;14.15;;;2.42;;
72301;SDS011;60235;52.234;5.186;2023-02-03T12:08:27;15.70;;;2.42;;
72301;SDS011;60235;52.234;5.186;2023-02-03T12:33:59;13.48;;;2.25;;
72301;SDS011;60235;52.234;5.186;2023-02-03T12:36:29;9.40;;;2.20;;
72301;SDS011;60235;52.234;5.186;2023-02-03T12:41:34;12.25;;;2.58;;
72301;SDS011;60235;52.234;5.186;2023-02-03T12:44:46;12.70;;;2.30;;
72301;SDS011;60235;52.234;5.186;2023-02-03T12:46:55;13.75;;;2.63;;
72301;SDS011;60235;52.234;5.186;2023-02-03T12:49:27;9.82;;;2.40;;
72301;SDS011;60235;52.234;5.186;2023-02-03T12:54:43;14.02;;;2.28;;
72301;SDS011;60235;52.234;5.186;2023-02-03T12:57:17;20.15;;;3.08;;
72301;SDS011;60235;52.234;5.186;2023-02-03T12:59:53;19.77;;;3.05;;
72301;SDS011;60235;52.234;5.186;2023-02-03T13:02:25;12.10;;;2.75;;
72301;SDS011;60235;52.234;5.186;2023-02-03T13:04:52;19.58;;;4.10;;
72301;SDS011;60235;52.234;5.186;2023-02-03T13:07:38;20.30;;;3.70;;
72301;SDS011;60235;52.234;5.186;2023-02-03T13:10:30;15.60;;;2.53;;
72301;SDS011;60235;52.234;5.186;2023-02-03T13:12:55;12.50;;;2.60;;
72301;SDS011;60235;52.234;5.186;2023-02-03T13:15:27;14.93;;;2.63;;
72301;SDS011;60235;52.234;5.186;2023-02-03T13:18:01;12.63;;;2.80;;
72301;SDS011;60235;52.234;5.186;2023-02-03T13:20:30;13.38;;;2.70;;
72301;SDS011;60235;52.234;5.186;2023-02-03T13:23:00;19.02;;;2.80;;
72301;SDS011;60235;52.234;5.186;2023-02-03T13:25:31;12.45;;;2.60;;
72301;SDS011;60235;52.234;5.186;2023-02-03T13:38:20;12.90;;;2.65;;
72301;SDS011;60235;52.234;5.186;2023-02-03T13:43:23;26.55;;;3.75;;
72301;SDS011;60235;52.234;5.186;2023-02-03T13:45:52;13.98;;;2.75;;
72301;SDS011;60235;52.234;5.186;2023-02-03T13:50:44;20.90;;;3.03;;
72301;SDS011;60235;52.234;5.186;2023-02-03T13:53:15;16.38;;;2.83;;
72301;SDS011;60235;52.234;5.186;2023-02-03T13:55:43;10.15;;;1.95;;
72301;SDS011;60235;52.234;5.186;2023-02-03T13:58:19;19.13;;;2.80;;
72301;SDS011;60235;52.234;5.186;2023-02-03T14:05:51;16.50;;;2.60;;
72301;SDS011;60235;52.234;5.186;2023-02-03T14:13:38;16.58;;;3.40;;
72301;SDS011;60235;52.234;5.186;2023-02-03T14:16:20;19.27;;;3.28;;
72301;SDS011;60235;52.234;5.186;2023-02-03T14:54:28;22.02;;;2.53;;
72301;SDS011;60235;52.234;5.186;2023-02-03T15:02:11;18.85;;;3.17;;
72301;SDS011;60235;52.234;5.186;2023-02-03T15:04:41;24.63;;;2.92;;
72301;SDS011;60235;52.234;5.186;2023-02-03T15:07:09;25.17;;;3.63;;
72301;SDS011;60235;52.234;5.186;2023-02-03T15:09:55;21.58;;;2.53;;
72301;SDS011;60235;52.234;5.186;2023-02-03T15:12:26;19.42;;;3.10;;
72301;SDS011;60235;52.234;5.186;2023-02-03T15:15:10;29.77;;;3.17;;
72301;SDS011;60235;52.234;5.186;2023-02-03T15:17:37;24.42;;;3.15;;
72301;SDS011;60235;52.234;5.186;2023-02-03T15:20:51;16.50;;;3.08;;
72301;SDS011;60235;52.234;5.186;2023-02-03T15:22:49;23.42;;;3.33;;
72301;SDS011;60235;52.234;5.186;2023-02-03T15:25:16;22.77;;;3.03;;
72301;SDS011;60235;52.234;5.186;2023-02-03T15:27:43;18.35;;;3.15;;
72301;SDS011;60235;52.234;5.186;2023-02-03T15:30:17;28.35;;;3.15;;
72301;SDS011;60235;52.234;5.186;2023-02-03T15:33:28;19.63;;;2.78;;
72301;SDS011;60235;52.234;5.186;2023-02-03T15:35:30;23.17;;;2.97;;
72301;SDS011;60235;52.234;5.186;2023-02-03T15:38:06;24.10;;;4.15;;
72301;SDS011;60235;52.234;5.186;2023-02-03T15:40:50;19.20;;;3.60;;
72301;SDS011;60235;52.234;5.186;2023-02-03T15:43:34;20.02;;;2.78;;
72301;SDS011;60235;52.234;5.186;2023-02-03T15:48:31;17.90;;;3.05;;
72301;SDS011;60235;52.234;5.186;2023-02-03T15:51:09;19.17;;;2.90;;
72301;SDS011;60235;52.234;5.186;2023-02-03T15:56:13;21.95;;;3.47;;
72301;SDS011;60235;52.234;5.186;2023-02-03T15:58:45;20.55;;;2.85;;
72301;SDS011;60235;52.234;5.186;2023-02-03T16:01:12;25.25;;;3.60;;
72301;SDS011;60235;52.234;5.186;2023-02-03T16:03:43;23.75;;;3.50;;
72301;SDS011;60235;52.234;5.186;2023-02-03T16:06:26;25.70;;;3.97;;
72301;SDS011;60235;52.234;5.186;2023-02-03T16:08:54;26.38;;;3.65;;
72301;SDS011;60235;52.234;5.186;2023-02-03T16:11:21;13.77;;;2.55;;
72301;SDS011;60235;52.234;5.186;2023-02-03T16:13:51;26.75;;;3.17;;
72301;SDS011;60235;52.234;5.186;2023-02-03T16:16:20;18.40;;;2.72;;
72301;SDS011;60235;52.234;5.186;2023-02-03T16:18:54;23.38;;;3.22;;
72301;SDS011;60235;52.234;5.186;2023-02-03T16:21:40;18.65;;;2.80;;
72301;SDS011;60235;52.234;5.186;2023-02-03T16:24:31;25.40;;;3.90;;
72301;SDS011;60235;52.234;5.186;2023-02-03T16:29:46;20.70;;;3.55;;
72301;SDS011;60235;52.234;5.186;2023-02-03T16:32:31;20.77;;;3.40;;
72301;SDS011;60235;52.234;5.186;2023-02-03T16:35:16;26.40;;;3.53;;
72301;SDS011;60235;52.234;5.186;2023-02-03T16:38:09;19.25;;;3.08;;
72301;SDS011;60235;52.234;5.186;2023-02-03T16:40:56;23.52;;;3.65;;
72301;SDS011;60235;52.234;5.186;2023-02-03T16:43:41;23.88;;;3.03;;
72301;SDS011;60235;52.234;5.186;2023-02-03T16:46:25;19.70;;;2.42;;
72301;SDS011;60235;52.234;5.186;2023-02-03T16:49:10;20.05;;;3.53;;
72301;SDS011;60235;52.234;5.186;2023-02-03T16:51:55;19.98;;;2.75;;
72301;SDS011;60235;52.234;5.186;2023-02-03T16:54:21;15.48;;;2.75;;
72301;SDS011;60235;52.234;5.186;2023-02-03T16:56:48;28.80;;;4.18;;
72301;SDS011;60235;52.234;5.186;2023-02-03T16:59:16;22.30;;;2.80;;
72301;SDS011;60235;52.234;5.186;2023-02-03T17:01:42;23.80;;;5.35;;
72301;SDS011;60235;52.234;5.186;2023-02-03T17:04:08;17.50;;;3.38;;
72301;SDS011;60235;52.234;5.186;2023-02-03T17:06:36;22.63;;;3.47;;
72301;SDS011;60235;52.234;5.186;2023-02-03T17:09:02;22.80;;;3.08;;
72301;SDS011;60235;52.234;5.186;2023-02-03T17:11:28;23.80;;;3.58;;
72301;SDS011;60235;52.234;5.186;2023-02-03T17:13:54;25.27;;;4.05;;
72301;SDS011;60235;52.234;5.186;2023-02-03T17:16:22;21.80;;;3.42;;
72301;SDS011;60235;52.234;5.186;2023-02-03T17:18:49;23.95;;;3.53;;
72301;SDS011;60235;52.234;5.186;2023-02-03T17:21:17;18.52;;;3.10;;
72301;SDS011;60235;52.234;5.186;2023-02-03T17:23:43;24.35;;;3.22;;
72301;SDS011;60235;52.234;5.186;2023-02-03T17:26:09;25.48;;;3.33;;
72301;SDS011;60235;52.234;5.186;2023-02-03T17:28:35;23.25;;;3.03;;
72301;SDS011;60235;52.234;5.186;2023-02-03T17:31:04;19.20;;;3.22;;
72301;SDS011;60235;52.234;5.186;2023-02-03T17:33:30;16.15;;;3.05;;
72301;SDS011;60235;52.234;5.186;2023-02-03T17:36:04;18.33;;;3.13;;
72301;SDS011;60235;52.234;5.186;2023-02-03T17:38:31;19.65;;;3.47;;